New London, Wisconsin
Current Conditions -  °F | °C
As of 10:15 AM on Thursday 29 Jan 2015 (Local Time) from KPCZ Reporting Station
Overcast Overcast  
Wind Chill: 24°   Ceiling: 2200
Heat Index: 34°   Visibility: 10mi
Dew Point: 26°   Wind: 15mph
Humidity: 73%   Direction: 320°NW
Pressure: 29.94"   Gusts: NA
Location:  44.39°N, 88.74°W
Report Text: KPCZ 291615Z AUTO 32013KT 10SM OVC022 01/M03 A2994 RMK AO2 T00111032
Loading
Personal Weather Stations






























Interactive Weather Map New forecast layout! Learn more

10-Day Weather Forecast

Advertisements
Track Severe Weather on mobile